Time;durP1;ratioP1;P1;durP2;ratioP2;P2;SDS_P1;SDS_P2;PMS_P1;PMS_P2;Temp;Humidity;BMP_temperature;BMP_pressure;BME280_temperature;BME280_humidity;BME280_pressure;Samples;Min_cycle;Max_cycle;Signal;HPM_P1;HPM_P2
2023/05/18 08:14:32;;;;;;;;;5.00;5.00;;;;;17.06;54.46;102223.72;5073070;27;46199;-72
2023/05/18 08:16:58;;;;;;;;;3.75;3.75;;;;;17.27;54.74;102235.03;5056996;27;45617;-75
2023/05/18 08:19:24;;;;;;;;;6.00;4.50;;;;;17.46;54.55;102225.88;5061564;27;45566;-79
2023/05/18 08:21:49;;;;;;;;;2.00;2.00;;;;;17.65;54.42;102231.00;5062165;28;45723;-72
2023/05/18 08:24:15;;;;;;;;;6.00;4.00;;;;;17.86;53.62;102228.81;5064501;28;53006;-79
2023/05/18 08:26:40;;;;;;;;;3.50;3.50;;;;;18.07;53.39;102230.28;5065100;27;45789;-74
2023/05/18 08:29:08;;;;;;;;;5.00;3.50;;;;;18.23;53.07;102228.38;5059690;27;45421;-74
2023/05/18 08:31:41;;;;;;;;;6.75;5.75;;;;;18.41;52.44;102237.13;5054947;28;45494;-80
2023/05/18 08:34:07;;;;;;;;;6.25;6.25;;;;;18.59;52.18;102233.34;5063796;28;45860;-77
2023/05/18 08:36:36;;;;;;;;;6.50;6.25;;;;;18.68;52.15;102214.78;5077001;27;45960;-79
2023/05/18 08:39:01;;;;;;;;;7.50;7.50;;;;;18.88;52.13;102222.50;5063239;27;45450;-80
2023/05/18 08:42:08;;;;;;;;;7.75;7.75;;;;;19.02;52.02;102216.19;5056251;28;45574;-74
2023/05/18 08:44:39;;;;;;;;;8.00;8.00;;;;;19.13;51.47;102208.28;5061231;27;46060;-78
2023/05/18 08:47:16;;;;;;;;;14.75;12.50;;;;;19.30;51.43;102209.84;5059964;28;45532;-77
2023/05/18 08:49:42;;;;;;;;;12.00;10.25;;;;;19.39;51.60;102215.56;5058388;28;45422;-78
2023/05/18 08:52:08;;;;;;;;;12.25;11.50;;;;;19.51;51.80;102214.75;5060073;27;45636;-78
2023/05/18 08:54:35;;;;;;;;;10.50;10.00;;;;;19.60;51.47;102213.22;5057938;27;45800;-80
2023/05/18 08:57:06;;;;;;;;;15.25;12.25;;;;;19.61;51.42;102207.75;5058929;28;45764;-78
2023/05/18 08:59:34;;;;;;;;;19.75;15.00;;;;;19.77;51.11;102217.44;5059533;28;45494;-76
2023/05/18 09:01:59;;;;;;;;;15.50;15.25;;;;;19.84;50.82;102215.19;5051753;28;45780;-75
2023/05/18 09:04:26;;;;;;;;;13.50;12.75;;;;;19.88;50.43;102205.91;5054219;28;45465;-75
2023/05/18 09:06:53;;;;;;;;;10.50;10.25;;;;;19.93;50.27;102211.84;5056699;27;45566;-76
2023/05/18 09:09:20;;;;;;;;;8.00;8.00;;;;;19.98;50.12;102211.53;5054575;28;45774;-77
2023/05/18 09:11:46;;;;;;;;;10.00;7.00;;;;;19.99;49.46;102213.28;5065228;28;45564;-72
2023/05/18 09:14:12;;;;;;;;;12.50;11.75;;;;;19.99;49.55;102210.59;5053336;28;46111;-76
2023/05/18 09:16:37;;;;;;;;;10.33;10.33;;;;;19.99;49.45;102202.50;5058018;28;45604;-75
2023/05/18 09:19:03;;;;;;;;;12.75;11.25;;;;;20.01;49.23;102203.22;5053484;28;45494;-76
2023/05/18 09:21:31;;;;;;;;;11.67;9.00;;;;;20.04;48.72;102204.84;5052484;28;45518;-74
2023/05/18 09:23:56;;;;;;;;;15.75;12.50;;;;;20.09;48.93;102213.47;5056326;28;47407;-73
2023/05/18 09:26:22;;;;;;;;;11.75;9.50;;;;;20.03;48.66;102206.69;5043972;28;45651;-78
2023/05/18 09:28:51;;;;;;;;;12.00;11.25;;;;;20.11;48.69;102212.38;5048860;28;45586;-76
2023/05/18 09:31:18;;;;;;;;;12.50;11.00;;;;;20.09;48.62;102202.69;5043584;28;45470;-74
2023/05/18 09:33:45;;;;;;;;;13.75;13.00;;;;;20.11;47.08;102209.69;5046462;28;46122;-78
2023/05/18 09:36:11;;;;;;;;;14.75;13.25;;;;;20.12;47.40;102206.00;5047301;28;45556;-75
2023/05/18 09:38:38;;;;;;;;;16.00;9.33;;;;;20.11;47.21;102206.16;5046978;28;45499;-74
2023/05/18 09:41:09;;;;;;;;;17.33;13.00;;;;;20.12;47.54;102211.41;5040363;28;45507;-76
2023/05/18 09:43:35;;;;;;;;;13.00;11.25;;;;;20.16;47.40;102211.19;5035624;28;45600;-73
2023/05/18 09:46:05;;;;;;;;;17.00;15.00;;;;;20.18;47.05;102211.97;5038912;28;45613;-70
2023/05/18 09:48:30;;;;;;;;;14.25;13.75;;;;;20.16;46.83;102205.81;5035565;28;45462;-73
2023/05/18 09:50:58;;;;;;;;;20.00;12.00;;;;;20.18;47.14;102203.88;5037674;28;45552;-72
2023/05/18 09:53:23;;;;;;;;;16.00;11.75;;;;;20.19;46.53;102208.28;5045188;28;48429;-73
2023/05/18 09:55:49;;;;;;;;;9.67;9.67;;;;;20.16;47.06;102200.41;5041085;28;45371;-73
2023/05/18 09:58:15;;;;;;;;;17.00;14.50;;;;;20.20;46.74;102207.31;5038395;28;45675;-71
2023/05/18 10:00:43;;;;;;;;;13.00;12.00;;;;;20.22;47.45;102197.25;5044699;28;45572;-71
2023/05/18 10:03:17;;;;;;;;;14.67;11.67;;;;;20.24;47.05;102204.28;5060347;28;46169;-72
2023/05/18 10:05:42;;;;;;;;;15.00;12.50;;;;;20.25;47.16;102188.97;5050934;28;45789;-72
2023/05/18 10:08:07;;;;;;;;;15.25;13.75;;;;;20.25;47.65;102195.22;5041233;28;45455;-72
2023/05/18 10:10:37;;;;;;;;;15.75;13.75;;;;;20.26;47.69;102182.59;5034654;28;46251;-72
2023/05/18 10:13:03;;;;;;;;;13.25;12.25;;;;;20.31;47.31;102190.38;5034119;28;45378;-72
2023/05/18 10:15:28;;;;;;;;;18.00;16.25;;;;;20.30;47.78;102194.88;5045048;28;45652;-72
2023/05/18 10:17:59;;;;;;;;;13.00;12.33;;;;;20.34;47.22;102192.81;5034147;28;50714;-72
2023/05/18 10:20:27;;;;;;;;;14.33;11.67;;;;;20.36;47.94;102190.88;5035729;28;45500;-72
2023/05/18 10:22:55;;;;;;;;;21.50;16.00;;;;;20.38;47.54;102191.63;5033138;28;46103;-72
2023/05/18 10:25:24;;;;;;;;;19.25;13.75;;;;;20.40;47.56;102178.91;5051107;28;45566;-72
2023/05/18 10:27:55;;;;;;;;;16.25;15.00;;;;;20.43;47.91;102167.88;5042874;28;45462;-72
2023/05/18 10:30:21;;;;;;;;;22.00;17.25;;;;;20.44;47.58;102172.28;5049087;28;45507;-72
2023/05/18 10:32:47;;;;;;;;;18.50;18.25;;;;;20.45;48.32;102178.56;5037639;28;45945;-72
2023/05/18 10:35:13;;;;;;;;;18.50;15.75;;;;;20.43;48.13;102167.88;5039790;28;45365;-72
2023/05/18 10:37:46;;;;;;;;;17.25;17.25;;;;;20.44;48.40;102168.75;5043867;28;45500;-72
2023/05/18 10:40:12;;;;;;;;;16.50;14.50;;;;;20.44;48.84;102168.75;5047632;28;45598;-72
2023/05/18 10:42:40;;;;;;;;;22.25;18.25;;;;;20.45;48.52;102165.94;5046633;28;45475;-72
2023/05/18 10:45:08;;;;;;;;;16.00;14.75;;;;;20.48;48.57;102172.94;5042322;28;45561;-72
2023/05/18 10:47:38;;;;;;;;;19.50;16.50;;;;;20.44;49.53;102160.66;5035038;28;45523;-73
2023/05/18 10:50:04;;;;;;;;;17.50;14.25;;;;;20.45;49.55;102168.63;5048593;28;45848;-72
2023/05/18 10:52:31;;;;;;;;;12.50;12.50;;;;;20.49;48.22;102158.47;5046762;28;45982;-73
2023/05/18 10:55:00;;;;;;;;;12.00;11.33;;;;;20.48;48.03;102156.75;5048813;28;45434;-72
2023/05/18 10:57:34;;;;;;;;;11.00;10.67;;;;;20.49;48.08;102170.13;5046655;28;45771;-73
2023/05/18 10:59:59;;;;;;;;;11.67;11.67;;;;;20.49;48.05;102162.06;5040308;28;45544;-73
2023/05/18 11:02:26;;;;;;;;;10.67;9.00;;;;;20.49;47.49;102162.06;5048208;28;46454;-73
2023/05/18 11:04:53;;;;;;;;;12.67;10.33;;;;;20.53;47.68;102165.38;5051474;28;45349;-73
2023/05/18 11:07:20;;;;;;;;;9.33;9.00;;;;;20.54;47.58;102167.09;5045216;28;46171;-72
2023/05/18 11:09:47;;;;;;;;;11.67;9.00;;;;;20.58;47.70;102173.97;5045005;28;45457;-73
2023/05/18 11:12:15;;;;;;;;;11.67;8.00;;;;;20.58;47.86;102163.19;5041923;28;46812;-73
2023/05/18 11:14:51;;;;;;;;;10.33;9.00;;;;;20.54;47.51;102156.28;5037974;28;45584;-73
2023/05/18 11:17:24;;;;;;;;;9.00;8.33;;;;;20.64;46.97;102173.50;5044045;28;45494;-73
2023/05/18 11:20:05;;;;;;;;;8.33;7.00;;;;;20.65;46.20;102169.84;5042730;28;45497;-73
2023/05/18 11:22:51;;;;;;;;;7.67;7.67;;;;;20.69;46.05;102172.31;5045995;28;45614;-73
2023/05/18 11:25:22;;;;;;;;;8.33;7.67;;;;;20.70;46.34;102169.50;5065654;28;45929;-73
2023/05/18 11:27:50;;;;;;;;;8.67;8.00;;;;;20.67;46.92;102167.91;5045437;28;46215;-74
2023/05/18 11:30:35;;;;;;;;;10.00;8.67;;;;;20.72;45.90;102178.34;5046109;28;46016;-73
2023/05/18 11:33:15;;;;;;;;;7.00;6.00;;;;;20.74;45.16;102172.81;5045383;28;46153;-72
2023/05/18 11:35:53;;;;;;;;;12.67;8.00;;;;;20.74;45.42;102173.69;5046343;28;45348;-72
